sensor_id;sensor_type;location;lat;lon;timestamp;P1;durP1;ratioP1;P2;durP2;ratioP2
22144;SDS011;11238;48.730;11.566;2024-02-15T00:02:15;4.40;;;2.80;;
22144;SDS011;11238;48.730;11.566;2024-02-15T00:04:41;3.90;;;2.72;;
22144;SDS011;11238;48.730;11.566;2024-02-15T00:07:07;6.57;;;2.80;;
22144;SDS011;11238;48.730;11.566;2024-02-15T00:09:34;3.92;;;2.90;;
22144;SDS011;11238;48.730;11.566;2024-02-15T00:12:00;4.88;;;2.88;;
22144;SDS011;11238;48.730;11.566;2024-02-15T00:14:48;5.13;;;3.00;;
22144;SDS011;11238;48.730;11.566;2024-02-15T00:17:14;4.60;;;2.97;;
22144;SDS011;11238;48.730;11.566;2024-02-15T00:20:02;3.60;;;2.78;;
22144;SDS011;11238;48.730;11.566;2024-02-15T00:22:35;4.10;;;2.97;;
22144;SDS011;11238;48.730;11.566;2024-02-15T00:25:01;2.88;;;2.58;;
22144;SDS011;11238;48.730;11.566;2024-02-15T00:27:27;7.35;;;3.00;;
22144;SDS011;11238;48.730;11.566;2024-02-15T00:29:53;4.90;;;2.90;;
22144;SDS011;11238;48.730;11.566;2024-02-15T00:32:19;4.20;;;3.03;;
22144;SDS011;11238;48.730;11.566;2024-02-15T00:34:44;7.15;;;3.22;;
22144;SDS011;11238;48.730;11.566;2024-02-15T00:37:12;4.78;;;2.90;;
22144;SDS011;11238;48.730;11.566;2024-02-15T00:39:38;5.72;;;3.08;;
22144;SDS011;11238;48.730;11.566;2024-02-15T00:42:03;6.53;;;3.30;;
22144;SDS011;11238;48.730;11.566;2024-02-15T00:44:31;4.43;;;3.42;;
22144;SDS011;11238;48.730;11.566;2024-02-15T00:46:56;4.25;;;3.10;;
22144;SDS011;11238;48.730;11.566;2024-02-15T00:49:22;3.83;;;2.92;;
22144;SDS011;11238;48.730;11.566;2024-02-15T00:51:48;3.13;;;2.80;;
22144;SDS011;11238;48.730;11.566;2024-02-15T00:54:14;3.85;;;2.85;;
22144;SDS011;11238;48.730;11.566;2024-02-15T00:56:40;5.93;;;3.10;;
22144;SDS011;11238;48.730;11.566;2024-02-15T00:59:06;4.97;;;2.95;;
22144;SDS011;11238;48.730;11.566;2024-02-15T01:01:32;5.60;;;3.20;;
22144;SDS011;11238;48.730;11.566;2024-02-15T01:03:58;3.08;;;2.50;;
22144;SDS011;11238;48.730;11.566;2024-02-15T01:06:24;4.70;;;3.08;;
22144;SDS011;11238;48.730;11.566;2024-02-15T01:08:49;4.30;;;2.90;;
22144;SDS011;11238;48.730;11.566;2024-02-15T01:11:15;3.70;;;2.80;;
22144;SDS011;11238;48.730;11.566;2024-02-15T01:13:42;5.05;;;3.05;;
22144;SDS011;11238;48.730;11.566;2024-02-15T01:16:09;4.00;;;2.67;;
22144;SDS011;11238;48.730;11.566;2024-02-15T01:18:35;3.95;;;2.75;;
22144;SDS011;11238;48.730;11.566;2024-02-15T01:21:01;4.30;;;2.88;;
22144;SDS011;11238;48.730;11.566;2024-02-15T01:23:27;5.50;;;3.22;;
22144;SDS011;11238;48.730;11.566;2024-02-15T01:25:53;4.90;;;3.00;;
22144;SDS011;11238;48.730;11.566;2024-02-15T01:28:19;6.70;;;3.53;;
22144;SDS011;11238;48.730;11.566;2024-02-15T01:30:45;4.63;;;3.40;;
22144;SDS011;11238;48.730;11.566;2024-02-15T01:33:11;5.70;;;3.10;;
22144;SDS011;11238;48.730;11.566;2024-02-15T01:35:38;5.30;;;3.50;;
22144;SDS011;11238;48.730;11.566;2024-02-15T01:38:04;5.82;;;3.15;;
22144;SDS011;11238;48.730;11.566;2024-02-15T01:40:30;4.05;;;3.03;;
22144;SDS011;11238;48.730;11.566;2024-02-15T01:42:56;6.80;;;3.08;;
22144;SDS011;11238;48.730;11.566;2024-02-15T01:45:24;4.30;;;2.70;;
22144;SDS011;11238;48.730;11.566;2024-02-15T01:47:51;5.55;;;3.10;;
22144;SDS011;11238;48.730;11.566;2024-02-15T01:50:17;3.88;;;3.10;;
22144;SDS011;11238;48.730;11.566;2024-02-15T01:52:45;3.78;;;3.10;;
22144;SDS011;11238;48.730;11.566;2024-02-15T01:55:13;4.07;;;3.38;;
22144;SDS011;11238;48.730;11.566;2024-02-15T01:57:43;4.45;;;2.92;;
22144;SDS011;11238;48.730;11.566;2024-02-15T02:00:14;4.30;;;3.17;;
22144;SDS011;11238;48.730;11.566;2024-02-15T02:02:42;5.93;;;2.83;;
22144;SDS011;11238;48.730;11.566;2024-02-15T02:05:10;4.03;;;3.33;;
22144;SDS011;11238;48.730;11.566;2024-02-15T02:07:39;3.35;;;2.67;;
22144;SDS011;11238;48.730;11.566;2024-02-15T02:10:06;3.90;;;2.95;;
22144;SDS011;11238;48.730;11.566;2024-02-15T02:12:32;4.68;;;2.97;;
22144;SDS011;11238;48.730;11.566;2024-02-15T02:14:58;5.43;;;3.10;;
22144;SDS011;11238;48.730;11.566;2024-02-15T02:17:24;5.82;;;3.30;;
22144;SDS011;11238;48.730;11.566;2024-02-15T02:19:50;4.55;;;3.10;;
22144;SDS011;11238;48.730;11.566;2024-02-15T02:22:15;3.78;;;3.20;;
22144;SDS011;11238;48.730;11.566;2024-02-15T02:27:24;4.68;;;3.45;;
22144;SDS011;11238;48.730;11.566;2024-02-15T02:29:52;4.03;;;3.35;;
22144;SDS011;11238;48.730;11.566;2024-02-15T02:32:19;7.20;;;3.42;;
22144;SDS011;11238;48.730;11.566;2024-02-15T02:34:44;3.70;;;2.92;;
22144;SDS011;11238;48.730;11.566;2024-02-15T02:37:10;5.32;;;3.38;;
22144;SDS011;11238;48.730;11.566;2024-02-15T02:39:38;5.60;;;3.38;;
22144;SDS011;11238;48.730;11.566;2024-02-15T02:42:05;4.72;;;3.15;;
22144;SDS011;11238;48.730;11.566;2024-02-15T02:44:31;5.88;;;3.67;;
22144;SDS011;11238;48.730;11.566;2024-02-15T02:46:57;6.90;;;3.00;;
22144;SDS011;11238;48.730;11.566;2024-02-15T02:49:23;5.57;;;3.65;;
22144;SDS011;11238;48.730;11.566;2024-02-15T02:51:48;4.18;;;3.40;;
22144;SDS011;11238;48.730;11.566;2024-02-15T02:54:14;3.58;;;2.97;;
22144;SDS011;11238;48.730;11.566;2024-02-15T02:56:41;4.05;;;3.10;;
22144;SDS011;11238;48.730;11.566;2024-02-15T02:59:09;3.42;;;3.03;;
22144;SDS011;11238;48.730;11.566;2024-02-15T03:01:35;5.00;;;3.13;;
22144;SDS011;11238;48.730;11.566;2024-02-15T03:04:01;3.72;;;3.33;;
22144;SDS011;11238;48.730;11.566;2024-02-15T03:06:26;4.65;;;3.17;;
22144;SDS011;11238;48.730;11.566;2024-02-15T03:08:53;4.47;;;3.15;;
22144;SDS011;11238;48.730;11.566;2024-02-15T03:11:22;9.88;;;3.67;;
22144;SDS011;11238;48.730;11.566;2024-02-15T03:13:48;6.47;;;3.10;;
22144;SDS011;11238;48.730;11.566;2024-02-15T03:16:14;4.55;;;3.50;;
22144;SDS011;11238;48.730;11.566;2024-02-15T03:18:40;5.80;;;3.60;;
22144;SDS011;11238;48.730;11.566;2024-02-15T03:21:06;4.97;;;3.90;;
22144;SDS011;11238;48.730;11.566;2024-02-15T03:23:34;5.95;;;3.72;;
22144;SDS011;11238;48.730;11.566;2024-02-15T03:26:01;6.07;;;3.67;;
22144;SDS011;11238;48.730;11.566;2024-02-15T03:28:29;4.20;;;3.40;;
22144;SDS011;11238;48.730;11.566;2024-02-15T03:30:55;7.47;;;3.80;;
22144;SDS011;11238;48.730;11.566;2024-02-15T03:33:21;5.25;;;3.38;;
22144;SDS011;11238;48.730;11.566;2024-02-15T03:35:51;7.25;;;3.53;;
22144;SDS011;11238;48.730;11.566;2024-02-15T03:38:17;3.85;;;3.00;;
22144;SDS011;11238;48.730;11.566;2024-02-15T03:40:45;4.22;;;3.13;;
22144;SDS011;11238;48.730;11.566;2024-02-15T03:43:11;4.05;;;2.85;;
22144;SDS011;11238;48.730;11.566;2024-02-15T03:45:37;4.18;;;3.10;;
22144;SDS011;11238;48.730;11.566;2024-02-15T03:48:03;4.38;;;3.15;;
22144;SDS011;11238;48.730;11.566;2024-02-15T03:50:30;4.90;;;3.42;;
22144;SDS011;11238;48.730;11.566;2024-02-15T03:52:58;5.07;;;3.33;;
22144;SDS011;11238;48.730;11.566;2024-02-15T03:55:25;4.85;;;3.50;;
22144;SDS011;11238;48.730;11.566;2024-02-15T03:57:50;6.63;;;3.72;;
22144;SDS011;11238;48.730;11.566;2024-02-15T04:00:17;6.50;;;3.80;;
22144;SDS011;11238;48.730;11.566;2024-02-15T04:02:46;5.70;;;3.70;;
22144;SDS011;11238;48.730;11.566;2024-02-15T04:05:15;4.20;;;3.47;;
22144;SDS011;11238;48.730;11.566;2024-02-15T04:07:44;3.80;;;2.88;;
22144;SDS011;11238;48.730;11.566;2024-02-15T04:10:09;4.60;;;3.55;;
22144;SDS011;11238;48.730;11.566;2024-02-15T04:12:35;5.85;;;3.20;;
22144;SDS011;11238;48.730;11.566;2024-02-15T04:15:02;6.45;;;3.53;;
22144;SDS011;11238;48.730;11.566;2024-02-15T04:17:40;6.60;;;3.80;;
22144;SDS011;11238;48.730;11.566;2024-02-15T04:20:08;4.10;;;3.30;;
22144;SDS011;11238;48.730;11.566;2024-02-15T04:22:34;5.03;;;3.28;;
22144;SDS011;11238;48.730;11.566;2024-02-15T04:25:07;5.68;;;2.92;;
22144;SDS011;11238;48.730;11.566;2024-02-15T04:27:35;5.28;;;2.90;;
22144;SDS011;11238;48.730;11.566;2024-02-15T04:30:02;4.25;;;2.80;;
22144;SDS011;11238;48.730;11.566;2024-02-15T04:32:28;3.50;;;3.00;;
22144;SDS011;11238;48.730;11.566;2024-02-15T04:34:58;5.82;;;2.80;;
22144;SDS011;11238;48.730;11.566;2024-02-15T04:37:25;5.10;;;3.45;;
22144;SDS011;11238;48.730;11.566;2024-02-15T04:39:58;4.07;;;3.22;;
22144;SDS011;11238;48.730;11.566;2024-02-15T04:42:24;7.72;;;3.20;;
22144;SDS011;11238;48.730;11.566;2024-02-15T04:44:51;6.07;;;2.97;;
22144;SDS011;11238;48.730;11.566;2024-02-15T04:47:20;7.30;;;3.58;;
22144;SDS011;11238;48.730;11.566;2024-02-15T04:49:46;6.40;;;3.50;;
22144;SDS011;11238;48.730;11.566;2024-02-15T04:52:12;7.68;;;3.20;;
22144;SDS011;11238;48.730;11.566;2024-02-15T04:54:37;6.50;;;3.75;;
22144;SDS011;11238;48.730;11.566;2024-02-15T04:57:03;3.95;;;2.88;;
22144;SDS011;11238;48.730;11.566;2024-02-15T04:59:31;3.95;;;2.85;;
22144;SDS011;11238;48.730;11.566;2024-02-15T05:01:58;4.43;;;3.10;;
22144;SDS011;11238;48.730;11.566;2024-02-15T05:04:23;6.85;;;3.72;;
22144;SDS011;11238;48.730;11.566;2024-02-15T05:06:50;4.90;;;3.35;;
22144;SDS011;11238;48.730;11.566;2024-02-15T05:09:16;5.85;;;3.45;;
22144;SDS011;11238;48.730;11.566;2024-02-15T05:11:43;4.63;;;3.17;;
22144;SDS011;11238;48.730;11.566;2024-02-15T05:14:14;6.93;;;3.03;;
22144;SDS011;11238;48.730;11.566;2024-02-15T05:16:47;4.47;;;3.17;;
22144;SDS011;11238;48.730;11.566;2024-02-15T05:19:17;5.45;;;3.20;;
22144;SDS011;11238;48.730;11.566;2024-02-15T05:21:46;4.13;;;2.95;;
22144;SDS011;11238;48.730;11.566;2024-02-15T05:24:16;4.65;;;3.22;;
22144;SDS011;11238;48.730;11.566;2024-02-15T05:26:44;4.80;;;2.90;;
22144;SDS011;11238;48.730;11.566;2024-02-15T05:29:14;4.53;;;3.35;;
22144;SDS011;11238;48.730;11.566;2024-02-15T05:31:40;3.60;;;3.17;;
22144;SDS011;11238;48.730;11.566;2024-02-15T05:34:06;4.15;;;3.03;;
22144;SDS011;11238;48.730;11.566;2024-02-15T05:36:33;5.75;;;3.08;;
22144;SDS011;11238;48.730;11.566;2024-02-15T05:39:00;5.68;;;3.28;;
22144;SDS011;11238;48.730;11.566;2024-02-15T05:41:28;4.47;;;3.03;;
22144;SDS011;11238;48.730;11.566;2024-02-15T05:43:55;3.88;;;3.15;;
22144;SDS011;11238;48.730;11.566;2024-02-15T05:46:23;7.13;;;3.20;;
22144;SDS011;11238;48.730;11.566;2024-02-15T05:48:49;5.15;;;3.00;;
22144;SDS011;11238;48.730;11.566;2024-02-15T05:51:17;6.47;;;3.05;;
22144;SDS011;11238;48.730;11.566;2024-02-15T05:53:43;5.35;;;3.22;;
22144;SDS011;11238;48.730;11.566;2024-02-15T05:56:08;4.65;;;3.13;;
22144;SDS011;11238;48.730;11.566;2024-02-15T05:58:37;4.53;;;2.88;;
22144;SDS011;11238;48.730;11.566;2024-02-15T06:01:04;4.00;;;3.30;;
22144;SDS011;11238;48.730;11.566;2024-02-15T06:03:32;3.78;;;3.22;;
22144;SDS011;11238;48.730;11.566;2024-02-15T06:06:00;3.72;;;2.80;;
22144;SDS011;11238;48.730;11.566;2024-02-15T06:08:30;5.07;;;2.90;;
22144;SDS011;11238;48.730;11.566;2024-02-15T06:10:56;4.28;;;3.20;;
22144;SDS011;11238;48.730;11.566;2024-02-15T06:13:22;3.75;;;2.92;;
22144;SDS011;11238;48.730;11.566;2024-02-15T06:15:52;4.28;;;3.33;;
22144;SDS011;11238;48.730;11.566;2024-02-15T06:18:19;4.03;;;3.45;;
22144;SDS011;11238;48.730;11.566;2024-02-15T06:20:57;5.53;;;3.30;;
22144;SDS011;11238;48.730;11.566;2024-02-15T06:23:25;7.00;;;3.53;;
22144;SDS011;11238;48.730;11.566;2024-02-15T06:25:53;3.95;;;3.40;;
22144;SDS011;11238;48.730;11.566;2024-02-15T06:28:21;4.20;;;3.13;;
22144;SDS011;11238;48.730;11.566;2024-02-15T06:31:09;3.30;;;2.95;;
22144;SDS011;11238;48.730;11.566;2024-02-15T06:33:55;6.32;;;3.30;;
22144;SDS011;11238;48.730;11.566;2024-02-15T06:36:40;4.43;;;3.25;;
22144;SDS011;11238;48.730;11.566;2024-02-15T06:39:31;5.00;;;3.75;;
22144;SDS011;11238;48.730;11.566;2024-02-15T06:42:06;5.60;;;4.18;;
22144;SDS011;11238;48.730;11.566;2024-02-15T06:44:32;6.43;;;4.50;;
22144;SDS011;11238;48.730;11.566;2024-02-15T06:46:58;6.00;;;4.38;;
22144;SDS011;11238;48.730;11.566;2024-02-15T06:49:25;6.00;;;5.00;;
22144;SDS011;11238;48.730;11.566;2024-02-15T06:51:51;8.27;;;4.65;;
22144;SDS011;11238;48.730;11.566;2024-02-15T06:54:17;6.32;;;4.18;;
22144;SDS011;11238;48.730;11.566;2024-02-15T06:56:46;6.32;;;4.13;;
22144;SDS011;11238;48.730;11.566;2024-02-15T06:59:12;5.32;;;4.10;;
22144;SDS011;11238;48.730;11.566;2024-02-15T07:01:43;6.20;;;4.30;;
22144;SDS011;11238;48.730;11.566;2024-02-15T07:04:09;8.38;;;5.80;;
22144;SDS011;11238;48.730;11.566;2024-02-15T07:06:36;6.45;;;4.88;;
22144;SDS011;11238;48.730;11.566;2024-02-15T07:09:03;7.88;;;5.25;;
22144;SDS011;11238;48.730;11.566;2024-02-15T07:11:32;6.38;;;4.70;;
22144;SDS011;11238;48.730;11.566;2024-02-15T07:14:00;7.20;;;5.10;;
22144;SDS011;11238;48.730;11.566;2024-02-15T07:16:26;8.13;;;6.00;;
22144;SDS011;11238;48.730;11.566;2024-02-15T07:18:52;7.90;;;5.38;;
22144;SDS011;11238;48.730;11.566;2024-02-15T07:21:19;9.32;;;6.53;;
22144;SDS011;11238;48.730;11.566;2024-02-15T07:23:50;9.48;;;6.78;;
22144;SDS011;11238;48.730;11.566;2024-02-15T07:26:16;12.35;;;7.07;;
22144;SDS011;11238;48.730;11.566;2024-02-15T07:28:45;11.73;;;6.95;;
22144;SDS011;11238;48.730;11.566;2024-02-15T07:31:13;10.27;;;6.60;;
22144;SDS011;11238;48.730;11.566;2024-02-15T07:33:39;8.73;;;6.10;;
22144;SDS011;11238;48.730;11.566;2024-02-15T07:36:08;9.52;;;5.50;;
22144;SDS011;11238;48.730;11.566;2024-02-15T07:38:35;7.45;;;4.70;;
22144;SDS011;11238;48.730;11.566;2024-02-15T07:41:01;7.90;;;3.83;;
22144;SDS011;11238;48.730;11.566;2024-02-15T07:43:27;5.00;;;3.88;;
22144;SDS011;11238;48.730;11.566;2024-02-15T07:45:53;3.25;;;2.80;;
22144;SDS011;11238;48.730;11.566;2024-02-15T07:48:19;4.20;;;3.13;;
22144;SDS011;11238;48.730;11.566;2024-02-15T07:50:44;3.22;;;2.92;;
22144;SDS011;11238;48.730;11.566;2024-02-15T07:53:10;5.07;;;2.95;;
22144;SDS011;11238;48.730;11.566;2024-02-15T07:55:37;5.97;;;3.80;;
22144;SDS011;11238;48.730;11.566;2024-02-15T07:58:03;5.70;;;3.60;;
22144;SDS011;11238;48.730;11.566;2024-02-15T08:00:32;5.15;;;3.13;;
22144;SDS011;11238;48.730;11.566;2024-02-15T08:02:57;5.15;;;2.92;;
22144;SDS011;11238;48.730;11.566;2024-02-15T08:05:24;3.45;;;2.75;;
22144;SDS011;11238;48.730;11.566;2024-02-15T08:07:49;3.80;;;3.13;;
22144;SDS011;11238;48.730;11.566;2024-02-15T08:10:16;4.32;;;3.10;;
22144;SDS011;11238;48.730;11.566;2024-02-15T08:12:43;5.35;;;2.67;;
22144;SDS011;11238;48.730;11.566;2024-02-15T08:15:10;4.80;;;3.10;;
22144;SDS011;11238;48.730;11.566;2024-02-15T08:17:40;7.45;;;3.20;;
22144;SDS011;11238;48.730;11.566;2024-02-15T08:20:11;4.43;;;3.00;;
22144;SDS011;11238;48.730;11.566;2024-02-15T08:22:38;4.82;;;3.13;;
22144;SDS011;11238;48.730;11.566;2024-02-15T08:25:11;3.63;;;2.80;;
22144;SDS011;11238;48.730;11.566;2024-02-15T08:27:42;4.15;;;3.00;;
22144;SDS011;11238;48.730;11.566;2024-02-15T08:30:15;3.65;;;2.78;;
22144;SDS011;11238;48.730;11.566;2024-02-15T08:32:42;3.78;;;2.72;;
22144;SDS011;11238;48.730;11.566;2024-02-15T08:35:09;5.90;;;3.00;;
22144;SDS011;11238;48.730;11.566;2024-02-15T08:37:35;3.53;;;2.60;;
22144;SDS011;11238;48.730;11.566;2024-02-15T08:40:04;3.67;;;2.75;;
22144;SDS011;11238;48.730;11.566;2024-02-15T08:42:39;3.25;;;2.70;;
22144;SDS011;11238;48.730;11.566;2024-02-15T08:45:07;3.75;;;2.78;;
22144;SDS011;11238;48.730;11.566;2024-02-15T08:47:37;4.13;;;2.65;;
22144;SDS011;11238;48.730;11.566;2024-02-15T08:50:08;4.70;;;2.70;;
22144;SDS011;11238;48.730;11.566;2024-02-15T08:52:38;5.43;;;2.50;;
22144;SDS011;11238;48.730;11.566;2024-02-15T08:55:05;2.70;;;2.47;;
22144;SDS011;11238;48.730;11.566;2024-02-15T08:57:32;5.28;;;2.72;;
22144;SDS011;11238;48.730;11.566;2024-02-15T08:59:59;5.68;;;2.80;;
22144;SDS011;11238;48.730;11.566;2024-02-15T09:02:25;4.75;;;2.47;;
22144;SDS011;11238;48.730;11.566;2024-02-15T09:04:53;3.30;;;2.70;;
22144;SDS011;11238;48.730;11.566;2024-02-15T09:07:19;3.70;;;2.75;;
22144;SDS011;11238;48.730;11.566;2024-02-15T09:09:46;3.85;;;2.38;;
22144;SDS011;11238;48.730;11.566;2024-02-15T09:12:12;3.47;;;2.45;;
22144;SDS011;11238;48.730;11.566;2024-02-15T09:14:38;4.00;;;2.35;;
22144;SDS011;11238;48.730;11.566;2024-02-15T09:17:04;3.22;;;2.67;;
22144;SDS011;11238;48.730;11.566;2024-02-15T09:19:33;5.80;;;2.50;;
22144;SDS011;11238;48.730;11.566;2024-02-15T09:22:00;5.05;;;2.40;;
22144;SDS011;11238;48.730;11.566;2024-02-15T09:24:32;5.57;;;2.90;;
22144;SDS011;11238;48.730;11.566;2024-02-15T09:27:02;5.82;;;2.65;;
22144;SDS011;11238;48.730;11.566;2024-02-15T09:29:28;5.25;;;2.65;;
22144;SDS011;11238;48.730;11.566;2024-02-15T09:31:58;3.25;;;2.60;;
22144;SDS011;11238;48.730;11.566;2024-02-15T09:34:27;3.78;;;2.50;;
22144;SDS011;11238;48.730;11.566;2024-02-15T09:36:53;2.72;;;2.35;;
22144;SDS011;11238;48.730;11.566;2024-02-15T09:39:21;3.90;;;2.67;;
22144;SDS011;11238;48.730;11.566;2024-02-15T09:41:48;6.97;;;2.92;;
22144;SDS011;11238;48.730;11.566;2024-02-15T09:44:25;4.25;;;2.75;;
22144;SDS011;11238;48.730;11.566;2024-02-15T09:47:02;4.53;;;2.97;;
22144;SDS011;11238;48.730;11.566;2024-02-15T09:49:33;4.50;;;3.00;;
22144;SDS011;11238;48.730;11.566;2024-02-15T09:52:02;5.68;;;2.90;;
22144;SDS011;11238;48.730;11.566;2024-02-15T09:54:29;3.22;;;2.30;;
22144;SDS011;11238;48.730;11.566;2024-02-15T09:56:55;4.25;;;2.90;;
22144;SDS011;11238;48.730;11.566;2024-02-15T09:59:26;4.13;;;2.60;;
22144;SDS011;11238;48.730;11.566;2024-02-15T10:01:52;3.72;;;2.83;;
22144;SDS011;11238;48.730;11.566;2024-02-15T10:04:23;3.70;;;2.83;;
22144;SDS011;11238;48.730;11.566;2024-02-15T10:06:51;6.20;;;2.60;;
22144;SDS011;11238;48.730;11.566;2024-02-15T10:09:50;6.80;;;3.00;;
22144;SDS011;11238;48.730;11.566;2024-02-15T10:12:09;4.80;;;2.63;;
22144;SDS011;11238;48.730;11.566;2024-02-15T10:14:35;4.55;;;2.33;;
22144;SDS011;11238;48.730;11.566;2024-02-15T10:17:08;4.78;;;2.58;;
22144;SDS011;11238;48.730;11.566;2024-02-15T10:19:40;3.53;;;2.30;;
22144;SDS011;11238;48.730;11.566;2024-02-15T10:22:08;3.95;;;2.50;;
22144;SDS011;11238;48.730;11.566;2024-02-15T10:24:35;3.63;;;2.58;;
22144;SDS011;11238;48.730;11.566;2024-02-15T10:27:02;4.22;;;2.30;;
22144;SDS011;11238;48.730;11.566;2024-02-15T10:29:29;3.80;;;2.20;;
22144;SDS011;11238;48.730;11.566;2024-02-15T10:31:57;2.50;;;2.13;;
22144;SDS011;11238;48.730;11.566;2024-02-15T10:34:25;4.53;;;2.45;;
22144;SDS011;11238;48.730;11.566;2024-02-15T10:36:53;2.88;;;2.03;;
22144;SDS011;11238;48.730;11.566;2024-02-15T10:39:22;2.17;;;1.85;;
22144;SDS011;11238;48.730;11.566;2024-02-15T10:41:52;2.42;;;1.90;;
22144;SDS011;11238;48.730;11.566;2024-02-15T10:44:20;4.10;;;2.00;;
22144;SDS011;11238;48.730;11.566;2024-02-15T10:46:51;3.25;;;2.20;;
22144;SDS011;11238;48.730;11.566;2024-02-15T10:49:21;4.00;;;2.15;;
22144;SDS011;11238;48.730;11.566;2024-02-15T10:51:50;3.90;;;2.00;;
22144;SDS011;11238;48.730;11.566;2024-02-15T10:56:55;2.75;;;1.85;;
22144;SDS011;11238;48.730;11.566;2024-02-15T10:59:31;2.67;;;1.77;;
22144;SDS011;11238;48.730;11.566;2024-02-15T11:02:00;2.97;;;2.00;;
22144;SDS011;11238;48.730;11.566;2024-02-15T11:04:30;3.15;;;1.80;;
22144;SDS011;11238;48.730;11.566;2024-02-15T11:07:01;4.40;;;2.00;;
22144;SDS011;11238;48.730;11.566;2024-02-15T11:09:31;3.47;;;2.10;;
22144;SDS011;11238;48.730;11.566;2024-02-15T11:11:57;3.72;;;1.98;;
22144;SDS011;11238;48.730;11.566;2024-02-15T11:14:30;3.03;;;1.73;;
22144;SDS011;11238;48.730;11.566;2024-02-15T11:16:59;2.90;;;1.70;;
22144;SDS011;11238;48.730;11.566;2024-02-15T11:22:00;3.55;;;1.90;;
22144;SDS011;11238;48.730;11.566;2024-02-15T11:24:30;7.63;;;1.70;;
22144;SDS011;11238;48.730;11.566;2024-02-15T11:27:04;1.70;;;1.30;;
22144;SDS011;11238;48.730;11.566;2024-02-15T11:29:54;1.80;;;1.10;;
22144;SDS011;11238;48.730;11.566;2024-02-15T11:35:14;3.85;;;1.48;;
22144;SDS011;11238;48.730;11.566;2024-02-15T11:40:27;2.70;;;1.50;;
22144;SDS011;11238;48.730;11.566;2024-02-15T11:42:55;3.35;;;1.67;;
22144;SDS011;11238;48.730;11.566;2024-02-15T11:45:24;1.70;;;1.20;;
22144;SDS011;11238;48.730;11.566;2024-02-15T11:47:52;2.67;;;1.67;;
22144;SDS011;11238;48.730;11.566;2024-02-15T11:50:20;2.75;;;1.40;;
22144;SDS011;11238;48.730;11.566;2024-02-15T11:52:47;2.30;;;1.30;;
22144;SDS011;11238;48.730;11.566;2024-02-15T11:55:17;2.00;;;1.42;;
22144;SDS011;11238;48.730;11.566;2024-02-15T11:58:05;3.10;;;1.25;;
22144;SDS011;11238;48.730;11.566;2024-02-15T12:00:42;1.15;;;1.00;;
22144;SDS011;11238;48.730;11.566;2024-02-15T12:03:26;2.65;;;1.27;;
22144;SDS011;11238;48.730;11.566;2024-02-15T12:06:12;4.93;;;1.30;;
22144;SDS011;11238;48.730;11.566;2024-02-15T12:09:01;2.92;;;1.20;;
22144;SDS011;11238;48.730;11.566;2024-02-15T12:11:47;2.47;;;1.17;;
22144;SDS011;11238;48.730;11.566;2024-02-15T12:14:31;4.10;;;1.45;;
22144;SDS011;11238;48.730;11.566;2024-02-15T12:17:15;2.00;;;1.23;;
22144;SDS011;11238;48.730;11.566;2024-02-15T12:20:01;3.55;;;1.27;;
22144;SDS011;11238;48.730;11.566;2024-02-15T12:22:35;1.58;;;1.13;;
22144;SDS011;11238;48.730;11.566;2024-02-15T12:27:39;2.25;;;0.98;;
22144;SDS011;11238;48.730;11.566;2024-02-15T12:30:12;3.63;;;1.00;;
22144;SDS011;11238;48.730;11.566;2024-02-15T12:32:39;2.42;;;1.02;;
22144;SDS011;11238;48.730;11.566;2024-02-15T12:35:12;2.25;;;1.00;;
22144;SDS011;11238;48.730;11.566;2024-02-15T12:38:03;2.63;;;1.27;;
22144;SDS011;11238;48.730;11.566;2024-02-15T12:40:34;1.98;;;1.23;;
22144;SDS011;11238;48.730;11.566;2024-02-15T12:43:02;3.35;;;1.02;;
22144;SDS011;11238;48.730;11.566;2024-02-15T12:45:31;1.42;;;1.05;;
22144;SDS011;11238;48.730;11.566;2024-02-15T12:47:57;3.35;;;1.15;;
22144;SDS011;11238;48.730;11.566;2024-02-15T12:50:23;2.22;;;1.20;;
22144;SDS011;11238;48.730;11.566;2024-02-15T12:52:53;3.28;;;1.00;;
22144;SDS011;11238;48.730;11.566;2024-02-15T12:55:21;2.25;;;0.90;;
22144;SDS011;11238;48.730;11.566;2024-02-15T12:57:50;1.02;;;0.90;;
22144;SDS011;11238;48.730;11.566;2024-02-15T13:00:21;1.90;;;0.75;;
22144;SDS011;11238;48.730;11.566;2024-02-15T13:02:54;2.45;;;1.10;;
22144;SDS011;11238;48.730;11.566;2024-02-15T13:05:21;4.32;;;1.10;;
22144;SDS011;11238;48.730;11.566;2024-02-15T13:07:50;2.05;;;0.98;;
22144;SDS011;11238;48.730;11.566;2024-02-15T13:10:17;3.00;;;0.82;;
22144;SDS011;11238;48.730;11.566;2024-02-15T13:12:44;1.35;;;0.80;;
22144;SDS011;11238;48.730;11.566;2024-02-15T13:15:11;2.35;;;0.80;;
22144;SDS011;11238;48.730;11.566;2024-02-15T13:17:46;2.22;;;0.90;;
22144;SDS011;11238;48.730;11.566;2024-02-15T13:20:19;1.38;;;0.68;;
22144;SDS011;11238;48.730;11.566;2024-02-15T13:25:19;2.55;;;1.05;;
22144;SDS011;11238;48.730;11.566;2024-02-15T13:27:46;1.00;;;0.80;;
22144;SDS011;11238;48.730;11.566;2024-02-15T13:30:12;1.83;;;1.00;;
22144;SDS011;11238;48.730;11.566;2024-02-15T13:32:39;1.00;;;0.90;;
22144;SDS011;11238;48.730;11.566;2024-02-15T13:35:07;2.65;;;0.85;;
22144;SDS011;11238;48.730;11.566;2024-02-15T13:37:48;3.13;;;1.10;;
22144;SDS011;11238;48.730;11.566;2024-02-15T13:40:21;2.33;;;0.75;;
22144;SDS011;11238;48.730;11.566;2024-02-15T13:42:54;3.58;;;1.08;;
22144;SDS011;11238;48.730;11.566;2024-02-15T13:47:49;3.65;;;1.10;;
22144;SDS011;11238;48.730;11.566;2024-02-15T13:50:16;2.78;;;0.90;;
22144;SDS011;11238;48.730;11.566;2024-02-15T13:52:46;2.78;;;0.88;;
22144;SDS011;11238;48.730;11.566;2024-02-15T13:55:13;3.40;;;1.20;;
22144;SDS011;11238;48.730;11.566;2024-02-15T13:57:40;1.35;;;0.90;;
22144;SDS011;11238;48.730;11.566;2024-02-15T14:00:10;1.63;;;0.90;;
22144;SDS011;11238;48.730;11.566;2024-02-15T14:02:42;2.90;;;0.90;;
22144;SDS011;11238;48.730;11.566;2024-02-15T14:05:09;2.30;;;1.05;;
22144;SDS011;11238;48.730;11.566;2024-02-15T14:07:40;1.27;;;0.88;;
22144;SDS011;11238;48.730;11.566;2024-02-15T14:10:06;5.15;;;1.10;;
22144;SDS011;11238;48.730;11.566;2024-02-15T14:12:33;2.30;;;0.88;;
22144;SDS011;11238;48.730;11.566;2024-02-15T14:14:59;3.78;;;0.90;;
22144;SDS011;11238;48.730;11.566;2024-02-15T14:17:29;3.42;;;1.10;;
22144;SDS011;11238;48.730;11.566;2024-02-15T14:19:55;1.35;;;0.77;;
22144;SDS011;11238;48.730;11.566;2024-02-15T14:22:23;2.17;;;0.88;;
22144;SDS011;11238;48.730;11.566;2024-02-15T14:24:49;2.67;;;0.80;;
22144;SDS011;11238;48.730;11.566;2024-02-15T14:27:17;1.30;;;1.00;;
22144;SDS011;11238;48.730;11.566;2024-02-15T14:29:43;2.13;;;0.90;;
22144;SDS011;11238;48.730;11.566;2024-02-15T14:32:31;1.95;;;0.93;;
22144;SDS011;11238;48.730;11.566;2024-02-15T14:35:15;1.88;;;0.88;;
22144;SDS011;11238;48.730;11.566;2024-02-15T14:37:42;1.88;;;1.00;;
22144;SDS011;11238;48.730;11.566;2024-02-15T14:40:09;1.10;;;0.80;;
22144;SDS011;11238;48.730;11.566;2024-02-15T14:42:39;2.45;;;1.00;;
22144;SDS011;11238;48.730;11.566;2024-02-15T14:45:07;1.80;;;1.00;;
22144;SDS011;11238;48.730;11.566;2024-02-15T14:47:38;1.73;;;1.10;;
22144;SDS011;11238;48.730;11.566;2024-02-15T14:50:04;1.95;;;1.35;;
22144;SDS011;11238;48.730;11.566;2024-02-15T14:52:38;3.40;;;2.03;;
22144;SDS011;11238;48.730;11.566;2024-02-15T14:55:04;8.27;;;5.25;;
22144;SDS011;11238;48.730;11.566;2024-02-15T14:57:32;17.38;;;10.10;;
22144;SDS011;11238;48.730;11.566;2024-02-15T14:59:59;15.70;;;9.00;;
22144;SDS011;11238;48.730;11.566;2024-02-15T15:02:25;7.40;;;4.90;;
22144;SDS011;11238;48.730;11.566;2024-02-15T15:04:51;3.30;;;1.83;;